Platzwetter / Webcam

  • Aktuelles Bild
  • Verlauf
  • Verlauf
  • Verlauf
  • Verlauf
  • Verlauf
  • Verlauf
  • Verlauf
  • Verlauf
  • Verlauf
  • Verlauf
  • Verlauf
  • Verlauf
  • Verlauf
  • Verlauf
  • Verlauf
  • Verlauf
  • Verlauf

Flugwetter Linz

[Quelle: ADDS]
METAR
LOWL 251520Z 11003KT 060V150 CAVOK 21/10 Q1019 NOSIG =
TAF
LOWL 251115Z 2512/2612 10006KT CAVOK TX21/2514Z TN08/2605Z BECMG 2515/2517 VRB02KT TEMPO 2603/2608 2000 BR SCT004 PROB40 TEMPO 2604/2607 0500 BCFG SCT002 =

Flugwetter Salzburg

[Quelle: ADDS]
METAR
LOWS 251520Z 30005KT 240V340 9999 FEW060 SCT300 21/13 Q1019 NOSIG =
TAF
LOWS 251115Z 2512/2612 34005KT 9999 FEW060 SCT300 TX21/2513Z TN12/2606Z BECMG 2517/2519 15005KT CAVOK PROB30 TEMPO 2602/2606 VRB01KT 1200 BCFG SCT003 BECMG 2605/2607 9999 SCT050 BECMG 2608/2610 34006KT =

Fliegen lernen

Die Fliegerschule der WMW...

Termine & Events

Alle Termine anzeigen...

Aktuelles & News

+++ Aktuelle Spritpreise (11.05.2016): | Jet A-1 € 1,292 | Super Plus 98 ETBE € 1,370 | Avgas 100LL € 1,944 | +++